Kitchener, Canada
Current Conditions -  °F | °C
As of 12:00 AM on Wednesday 22 Oct 2014 (Local Time) from CYKF Reporting Station
Overcast Overcast  
Wind Chill:   Ceiling: 1400
Heat Index:   Visibility: 9mi
Dew Point:   Wind: 9mph
Humidity: 87%   Direction: 30°NNE
Pressure: 30.16"   Gusts: 17mph
Location:  43.45°N, 80.49°W
Report Text: CYKF 220400Z AUTO 03008G15KT 9SM BKN014 BKN020 OVC030 05/03 A3016 RMK SLP221
Loading
Personal Weather Stations






























Interactive Weather Map
Tropical Storm Tracking
New forecast layout! Learn more

10-Day Weather Forecast

Advertisements
Track Severe Weather on mobile